Osijek, Croatia
Current Conditions -  °F | °C
As of 12:00 PM on Sunday 25 Jan 2015 (Local Time) from LDOS Reporting Station
Broken Clouds Broken Clouds  
Wind Chill: 24°   Ceiling: 2700
Heat Index: 34°   Visibility: 6mi
Dew Point: 32°   Wind: 14mph
Humidity: 93%   Direction: 310°NW
Pressure: 30.03"   Gusts: NA
Location:  45.55°N, 18.68°E
Report Text: LDOS 251000Z 31012KT 9999 SCT007 BKN027 01/00 Q1017
Loading
Personal Weather Stations






























Interactive Weather Map New forecast layout! Learn more

10-Day Weather Forecast

Advertisements
Track Severe Weather on mobile